Time,TemperatureF,DewpointF,PressureIn,WindDirection,WindDirectionDegrees,WindSpeedMPH,WindSpeedGustMPH,Humidity,HourlyPrecipIn,Conditions,Clouds,dailyrainin,SoftwareType,DateUTC
2013-07-28 00:05:00,81.3,75.0,29.98,West,259,1.0,2.0,81,0.00,,,0.00,weatherlink.com 1.10,2013-07-28 04:05:00,
2013-07-28 00:22:00,81.3,75.0,29.98,WSW,258,1.0,4.0,82,0.00,,,0.00,weatherlink.com 1.10,2013-07-28 04:22:00,
2013-07-28 00:39:00,81.4,75.0,29.98,West,265,2.0,4.0,81,0.00,,,0.00,weatherlink.com 1.10,2013-07-28 04:39:00,
2013-07-28 00:55:00,81.4,75.0,29.97,West,261,1.0,5.0,81,0.00,,,0.00,weatherlink.com 1.10,2013-07-28 04:55:00,
2013-07-28 01:11:00,81.4,75.0,29.97,West,261,0.0,2.0,81,0.00,,,0.00,weatherlink.com 1.10,2013-07-28 05:11:00,
2013-07-28 01:27:00,81.2,75.0,29.96,WSW,254,0.0,2.0,82,0.00,,,0.00,weatherlink.com 1.10,2013-07-28 05:27:00,
2013-07-28 01:43:00,81.1,75.0,29.96,WSW,254,0.0,0.0,82,0.00,,,0.00,weatherlink.com 1.10,2013-07-28 05:43:00,
2013-07-28 02:01:00,80.9,75.0,29.96,WSW,254,0.0,0.0,83,0.00,,,0.00,weatherlink.com 1.10,2013-07-28 06:01:00,
2013-07-28 02:15:00,80.7,75.0,29.95,WSW,254,0.0,0.0,83,0.00,,,0.00,weatherlink.com 1.10,2013-07-28 06:15:00,
2013-07-28 02:29:00,80.5,75.0,29.96,WSW,254,0.0,0.0,84,0.00,,,0.00,weatherlink.com 1.10,2013-07-28 06:29:00,
2013-07-28 02:45:00,80.2,75.0,29.95,WSW,254,0.0,0.0,84,0.00,,,0.00,weatherlink.com 1.10,2013-07-28 06:45:00,
2013-07-28 03:01:00,80.0,75.0,29.95,WSW,254,0.0,0.0,85,0.00,,,0.00,weatherlink.com 1.10,2013-07-28 07:01:00,
2013-07-28 03:18:00,79.7,75.0,29.95,WSW,254,0.0,0.0,86,0.00,,,0.00,weatherlink.com 1.10,2013-07-28 07:18:00,
2013-07-28 03:33:00,79.4,75.0,29.95,WSW,254,0.0,0.0,86,0.00,,,0.00,weatherlink.com 1.10,2013-07-28 07:33:00,
2013-07-28 03:49:00,79.1,75.0,29.94,WSW,254,0.0,0.0,87,0.00,,,0.00,weatherlink.com 1.10,2013-07-28 07:49:00,
2013-07-28 04:06:00,78.8,75.0,29.94,WSW,254,0.0,0.0,88,0.00,,,0.00,weatherlink.com 1.10,2013-07-28 08:06:00,
2013-07-28 04:22:00,78.5,75.0,29.94,WSW,254,0.0,0.0,88,0.00,,,0.00,weatherlink.com 1.10,2013-07-28 08:22:00,
2013-07-28 04:37:00,78.3,75.0,29.94,WSW,248,0.0,1.0,89,0.00,,,0.00,weatherlink.com 1.10,2013-07-28 08:37:00,
2013-07-28 04:54:00,78.0,75.0,29.94,WSW,248,0.0,0.0,89,0.00,,,0.00,weatherlink.com 1.10,2013-07-28 08:54:00,
2013-07-28 05:10:00,77.9,75.0,29.94,WSW,248,0.0,0.0,90,0.00,,,0.00,weatherlink.com 1.10,2013-07-28 09:10:00,
2013-07-28 05:25:00,77.8,75.0,29.95,WSW,248,0.0,0.0,90,0.00,,,0.00,weatherlink.com 1.10,2013-07-28 09:25:00,
2013-07-28 05:42:00,77.7,75.0,29.95,WSW,248,0.0,0.0,90,0.00,,,0.00,weatherlink.com 1.10,2013-07-28 09:42:00,
2013-07-28 05:58:00,77.5,75.0,29.95,WSW,248,0.0,0.0,91,0.00,,,0.00,weatherlink.com 1.10,2013-07-28 09:58:00,
2013-07-28 06:13:00,77.5,75.0,29.95,WSW,248,0.0,1.0,91,0.00,,,0.00,weatherlink.com 1.10,2013-07-28 10:13:00,
2013-07-28 06:30:00,77.6,75.0,29.96,WSW,248,0.0,1.0,91,0.00,,,0.00,weatherlink.com 1.10,2013-07-28 10:30:00,
2013-07-28 06:45:00,77.6,75.0,29.96,WSW,248,0.0,0.0,92,0.00,,,0.00,weatherlink.com 1.10,2013-07-28 10:45:00,
2013-07-28 07:01:00,77.6,75.0,29.97,WSW,248,0.0,0.0,92,0.00,,,0.00,weatherlink.com 1.10,2013-07-28 11:01:00,
2013-07-28 07:20:00,78.2,76.0,29.97,WSW,248,0.0,1.0,92,0.00,,,0.00,weatherlink.com 1.10,2013-07-28 11:20:00,
2013-07-28 07:33:00,78.5,76.0,29.98,WSW,248,0.0,0.0,92,0.00,,,0.00,weatherlink.com 1.10,2013-07-28 11:33:00,
2013-07-28 07:50:00,79.0,76.0,29.98,WSW,248,0.0,0.0,91,0.00,,,0.00,weatherlink.com 1.10,2013-07-28 11:50:00,
2013-07-28 08:05:00,79.5,77.0,29.99,WSW,248,0.0,0.0,91,0.00,,,0.00,weatherlink.com 1.10,2013-07-28 12:05:00,
2013-07-28 08:21:00,80.5,77.0,29.99,WSW,248,0.0,0.0,90,0.00,,,0.00,weatherlink.com 1.10,2013-07-28 12:21:00,
2013-07-28 08:39:00,81.9,78.0,30.00,WSW,248,0.0,0.0,87,0.00,,,0.00,weatherlink.com 1.10,2013-07-28 12:39:00,
2013-07-28 08:53:00,83.7,77.0,30.00,WSW,250,1.0,3.0,81,0.00,,,0.00,weatherlink.com 1.10,2013-07-28 12:53:00,
2013-07-28 09:10:00,84.6,77.0,30.00,WSW,249,0.0,4.0,79,0.00,,,0.00,weatherlink.com 1.10,2013-07-28 13:10:00,
2013-07-28 09:26:00,84.5,77.0,30.00,West,270,0.0,3.0,79,0.00,,,0.00,weatherlink.com 1.10,2013-07-28 13:26:00,
2013-07-28 09:41:00,84.5,78.0,30.00,SW,234,3.0,4.0,80,0.00,,,0.00,weatherlink.com 1.10,2013-07-28 13:41:00,
2013-07-28 09:58:00,85.0,79.0,30.00,WSW,242,0.0,5.0,81,0.00,,,0.00,weatherlink.com 1.10,2013-07-28 13:58:00,
2013-07-28 10:14:00,85.7,77.0,30.00,SW,215,0.0,8.0,76,0.00,,,0.00,weatherlink.com 1.10,2013-07-28 14:14:00,
2013-07-28 10:31:00,85.7,78.0,30.00,SW,234,0.0,4.0,77,0.00,,,0.00,weatherlink.com 1.10,2013-07-28 14:31:00,
2013-07-28 10:45:00,86.0,78.0,30.00,WSW,250,0.0,6.0,76,0.00,,,0.00,weatherlink.com 1.10,2013-07-28 14:45:00,
2013-07-28 11:03:00,87.3,77.0,30.01,SW,227,0.0,4.0,72,0.00,,,0.00,weatherlink.com 1.10,2013-07-28 15:03:00,
2013-07-28 11:20:00,87.3,77.0,30.01,West,259,2.0,6.0,72,0.00,,,0.00,weatherlink.com 1.10,2013-07-28 15:20:00,
2013-07-28 11:32:00,87.9,78.0,30.01,WNW,298,4.0,6.0,72,0.00,,,0.00,weatherlink.com 1.10,2013-07-28 15:32:00,
2013-07-28 11:49:00,88.4,78.0,30.02,WSW,255,3.0,7.0,71,0.00,,,0.00,weatherlink.com 1.10,2013-07-28 15:49:00,
2013-07-28 12:04:00,88.1,78.0,30.03,West,263,4.0,7.0,72,0.00,,,0.00,weatherlink.com 1.10,2013-07-28 16:04:00,
2013-07-28 12:22:00,88.1,78.0,30.02,SW,232,3.0,7.0,72,0.00,,,0.00,weatherlink.com 1.10,2013-07-28 16:22:00,
2013-07-28 12:36:00,88.7,79.0,30.02,West,264,1.0,9.0,72,0.00,,,0.00,weatherlink.com 1.10,2013-07-28 16:36:00,
2013-07-28 12:55:00,89.5,79.0,30.02,WSW,257,3.0,10.0,71,0.00,,,0.00,weatherlink.com 1.10,2013-07-28 16:55:00,
2013-07-28 13:13:00,89.9,79.0,30.02,West,259,0.0,9.0,70,0.00,,,0.00,weatherlink.com 1.10,2013-07-28 17:13:00,
2013-07-28 13:24:00,89.5,79.0,30.02,SW,224,5.0,7.0,71,0.00,,,0.00,weatherlink.com 1.10,2013-07-28 17:24:00,
2013-07-28 13:41:00,88.8,78.0,30.01,SW,222,3.0,6.0,70,0.00,,,0.00,weatherlink.com 1.10,2013-07-28 17:41:00,
2013-07-28 13:59:00,89.0,78.0,30.01,West,259,3.0,6.0,70,0.00,,,0.00,weatherlink.com 1.10,2013-07-28 17:59:00,
2013-07-28 14:13:00,89.4,79.0,30.01,SW,236,5.0,6.0,71,0.00,,,0.00,weatherlink.com 1.10,2013-07-28 18:13:00,
2013-07-28 14:30:00,89.6,79.0,30.01,SW,214,3.0,8.0,70,0.00,,,0.00,weatherlink.com 1.10,2013-07-28 18:30:00,
2013-07-28 14:44:00,89.6,78.0,30.01,SSW,210,3.0,8.0,69,0.00,,,0.00,weatherlink.com 1.10,2013-07-28 18:44:00,
2013-07-28 15:01:00,88.4,78.0,30.01,SSW,202,1.0,8.0,71,0.00,,,0.00,weatherlink.com 1.10,2013-07-28 19:01:00,
2013-07-28 15:16:00,87.7,77.0,30.01,SW,234,2.0,8.0,71,0.00,,,0.00,weatherlink.com 1.10,2013-07-28 19:16:00,
2013-07-28 15:32:00,87.8,77.0,30.02,SW,229,0.0,8.0,71,0.00,,,0.00,weatherlink.com 1.10,2013-07-28 19:32:00,
2013-07-28 15:49:00,87.7,77.0,30.00,WSW,251,4.0,9.0,70,0.00,,,0.00,weatherlink.com 1.10,2013-07-28 19:49:00,
2013-07-28 16:05:00,87.3,76.0,30.02,WSW,247,0.0,10.0,70,0.00,,,0.00,weatherlink.com 1.10,2013-07-28 20:05:00,
2013-07-28 16:20:00,88.0,77.0,30.02,SW,219,3.0,9.0,69,0.00,,,0.00,weatherlink.com 1.10,2013-07-28 20:20:00,
2013-07-28 16:37:00,88.5,77.0,30.02,WSW,244,3.0,7.0,68,0.00,,,0.00,weatherlink.com 1.10,2013-07-28 20:37:00,
2013-07-28 17:09:00,88.1,76.0,30.02,WNW,284,0.0,5.0,68,0.00,,,0.00,weatherlink.com 1.10,2013-07-28 21:09:00,
2013-07-28 17:24:00,87.5,76.0,30.01,WSW,247,3.0,4.0,69,0.00,,,0.00,weatherlink.com 1.10,2013-07-28 21:24:00,
2013-07-28 17:40:00,86.8,76.0,30.00,WSW,238,2.0,5.0,71,0.00,,,0.00,weatherlink.com 1.10,2013-07-28 21:40:00,
2013-07-28 17:56:00,86.6,76.0,30.01,SW,227,0.0,4.0,70,0.00,,,0.00,weatherlink.com 1.10,2013-07-28 21:56:00,
2013-07-28 18:13:00,86.3,75.0,30.01,SW,233,2.0,4.0,70,0.00,,,0.00,weatherlink.com 1.10,2013-07-28 22:13:00,
2013-07-28 18:28:00,86.0,76.0,30.01,West,270,1.0,3.0,71,0.00,,,0.00,weatherlink.com 1.10,2013-07-28 22:28:00,
2013-07-28 18:44:00,86.0,76.0,30.01,SW,217,2.0,5.0,72,0.00,,,0.00,weatherlink.com 1.10,2013-07-28 22:44:00,
2013-07-28 19:03:00,85.5,76.0,30.01,West,261,2.0,4.0,72,0.00,,,0.00,weatherlink.com 1.10,2013-07-28 23:03:00,
2013-07-28 19:17:00,85.1,76.0,30.02,SW,234,1.0,3.0,73,0.00,,,0.00,weatherlink.com 1.10,2013-07-28 23:17:00,
2013-07-28 19:34:00,84.7,75.0,30.01,WSW,240,0.0,3.0,73,0.00,,,0.00,weatherlink.com 1.10,2013-07-28 23:34:00,
2013-07-28 19:48:00,84.5,75.0,30.01,SSE,149,0.0,2.0,72,0.00,,,0.00,weatherlink.com 1.10,2013-07-28 23:48:00,
2013-07-28 20:04:00,84.4,74.0,30.02,SSE,149,0.0,1.0,72,0.00,,,0.00,weatherlink.com 1.10,2013-07-29 00:04:00,
2013-07-28 20:20:00,84.1,75.0,30.02,SSE,149,0.0,1.0,73,0.00,,,0.00,weatherlink.com 1.10,2013-07-29 00:20:00,
2013-07-28 20:36:00,83.8,75.0,30.03,SSE,155,0.0,1.0,74,0.00,,,0.00,weatherlink.com 1.10,2013-07-29 00:36:00,
2013-07-28 20:53:00,83.4,75.0,30.03,SSE,155,0.0,0.0,76,0.00,,,0.00,weatherlink.com 1.10,2013-07-29 00:53:00,
2013-07-28 21:11:00,82.9,75.0,30.04,SSE,155,0.0,1.0,78,0.00,,,0.00,weatherlink.com 1.10,2013-07-29 01:11:00,
2013-07-28 21:24:00,82.5,75.0,30.04,SSE,155,0.0,1.0,79,0.00,,,0.00,weatherlink.com 1.10,2013-07-29 01:24:00,
2013-07-28 21:40:00,82.3,75.0,30.05,SSE,155,0.0,0.0,79,0.00,,,0.00,weatherlink.com 1.10,2013-07-29 01:40:00,
2013-07-28 22:11:00,81.4,75.0,30.05,SSE,155,0.0,0.0,82,0.00,,,0.00,weatherlink.com 1.10,2013-07-29 02:11:00,
2013-07-28 22:29:00,80.8,75.0,30.05,SSE,155,0.0,0.0,83,0.00,,,0.00,weatherlink.com 1.10,2013-07-29 02:29:00,
2013-07-28 22:44:00,80.5,75.0,30.05,SSE,155,0.0,0.0,83,0.00,,,0.00,weatherlink.com 1.10,2013-07-29 02:44:00,
2013-07-28 23:01:00,80.0,75.0,30.05,SSE,155,0.0,1.0,84,0.00,,,0.00,weatherlink.com 1.10,2013-07-29 03:01:00,
2013-07-28 23:17:00,79.7,75.0,30.05,SSE,155,0.0,0.0,85,0.00,,,0.00,weatherlink.com 1.10,2013-07-29 03:17:00,
2013-07-28 23:31:00,79.4,75.0,30.05,SSE,155,0.0,0.0,85,0.00,,,0.00,weatherlink.com 1.10,2013-07-29 03:31:00,
2013-07-28 23:48:00,79.1,75.0,30.05,SSE,155,0.0,0.0,86,0.00,,,0.00,weatherlink.com 1.10,2013-07-29 03:48:00,